createdAt,value
2018-01-10T00:01:37.631Z,97691
2018-01-10T00:04:05.799Z,97697
2018-01-10T00:06:33.982Z,97697
2018-01-10T00:09:02.157Z,97686
2018-01-10T00:11:30.322Z,97674
2018-01-10T00:13:58.490Z,97672
2018-01-10T00:16:26.650Z,97673
2018-01-10T00:18:54.841Z,97680
2018-01-10T00:21:23.017Z,97679
2018-01-10T00:23:51.188Z,97680
2018-01-10T00:26:19.360Z,97674
2018-01-10T00:28:47.566Z,97664
2018-01-10T00:31:15.730Z,97664
2018-01-10T00:33:43.895Z,97667
2018-01-10T00:36:12.065Z,97670
2018-01-10T00:38:40.244Z,97679
2018-01-10T00:41:08.418Z,97682
2018-01-10T00:43:36.615Z,97686
2018-01-10T00:46:04.797Z,97681
2018-01-10T00:48:32.974Z,97686
2018-01-10T00:51:01.144Z,97683
2018-01-10T00:53:29.325Z,97682
2018-01-10T00:55:57.489Z,97688
2018-01-10T00:58:25.674Z,97686
2018-01-10T01:00:53.877Z,97676
2018-01-10T01:03:22.042Z,97682
2018-01-10T01:05:50.979Z,97670
2018-01-10T01:08:19.154Z,97667
2018-01-10T01:10:47.328Z,97660
2018-01-10T01:13:15.502Z,97655
2018-01-10T01:15:43.696Z,97649
2018-01-10T01:18:11.863Z,97650
2018-01-10T01:20:40.063Z,97646
2018-01-10T01:23:08.241Z,97640
2018-01-10T01:25:36.405Z,97633
2018-01-10T01:28:04.578Z,97621
2018-01-10T02:52:30.414Z,97535
2018-01-10T02:54:58.591Z,97535
2018-01-10T02:57:26.754Z,97522
2018-01-10T02:59:54.921Z,97519
2018-01-10T03:02:23.864Z,97507
2018-01-10T03:04:52.061Z,97502
2018-01-10T03:07:20.231Z,97508
2018-01-10T03:09:48.395Z,97513
2018-01-10T03:12:16.562Z,97513
2018-01-10T03:14:45.484Z,97518
2018-01-10T03:17:13.658Z,97518
2018-01-10T03:19:41.834Z,97517
2018-01-10T03:22:10.030Z,97521
2018-01-10T03:24:38.967Z,97526
2018-01-10T03:27:07.161Z,97529
2018-01-10T03:29:35.332Z,97527
2018-01-10T03:32:03.497Z,97530
2018-01-10T03:34:31.668Z,97530
2018-01-10T03:36:59.835Z,97532
2018-01-10T03:39:27.997Z,97530
2018-01-10T03:41:56.185Z,97525
2018-01-10T03:44:24.386Z,97524
2018-01-10T03:46:52.583Z,97512
2018-01-10T03:49:21.512Z,97513
2018-01-10T03:51:49.687Z,97507
2018-01-10T03:54:17.874Z,97502
2018-01-10T03:56:46.046Z,97491
2018-01-10T03:59:14.216Z,97483
2018-01-10T04:01:42.399Z,97478
2018-01-10T04:04:10.590Z,97476
2018-01-10T04:06:38.758Z,97468
2018-01-10T04:09:06.943Z,97459
2018-01-10T04:11:36.006Z,97462
2018-01-10T04:14:04.161Z,97452
2018-01-10T04:16:32.333Z,97453
2018-01-10T04:19:00.503Z,97440
2018-01-10T04:21:29.453Z,97445
2018-01-10T04:23:57.624Z,97449
2018-01-10T04:26:25.845Z,97440
2018-01-10T04:28:54.787Z,97434
2018-01-10T04:31:22.961Z,97433
2018-01-10T04:33:51.117Z,97436
2018-01-10T04:36:19.302Z,97429
2018-01-10T04:38:47.462Z,97431
2018-01-10T04:41:15.639Z,97434
2018-01-10T04:43:43.818Z,97437
2018-01-10T04:46:12.009Z,97433
2018-01-10T04:48:40.174Z,97438
2018-01-10T04:51:08.343Z,97433
2018-01-10T04:53:36.507Z,97427
2018-01-10T04:56:04.670Z,97427
2018-01-10T04:58:32.826Z,97429
2018-01-10T05:01:01.773Z,97426
2018-01-10T05:03:29.951Z,97432
2018-01-10T05:05:58.114Z,97429
2018-01-10T05:08:27.093Z,97431
2018-01-10T05:10:55.245Z,97422
2018-01-10T05:13:23.409Z,97418
2018-01-10T05:15:52.338Z,97417
2018-01-10T05:18:20.513Z,97414
2018-01-10T05:20:48.677Z,97416
2018-01-10T05:23:16.855Z,97411
2018-01-10T05:25:45.017Z,97406
2018-01-10T05:28:13.204Z,97412
2018-01-10T05:30:41.387Z,97402
2018-01-10T05:33:09.554Z,97400
2018-01-10T05:35:37.731Z,97400
2018-01-10T05:38:05.910Z,97398
2018-01-10T05:40:34.116Z,97395
2018-01-10T05:43:02.294Z,97386
2018-01-10T05:45:30.473Z,97390
2018-01-10T05:47:58.633Z,97384
2018-01-10T05:50:26.817Z,97373
2018-01-10T05:52:54.982Z,97371
2018-01-10T05:55:23.147Z,97379
2018-01-10T05:57:51.613Z,97379
2018-01-10T06:00:19.810Z,97373
2018-01-10T06:02:47.994Z,97380
2018-01-10T06:05:16.181Z,97382
2018-01-10T06:07:44.376Z,97384
2018-01-10T06:10:13.310Z,97382
2018-01-10T06:12:41.484Z,97382
2018-01-10T06:15:09.645Z,97388
2018-01-10T06:17:37.810Z,97396
2018-01-10T06:20:05.975Z,97392
2018-01-10T06:22:34.155Z,97388
2018-01-10T06:25:02.358Z,97382
2018-01-10T06:27:30.518Z,97384
2018-01-10T06:29:58.675Z,97384
2018-01-10T06:32:26.854Z,97379
2018-01-10T06:34:55.027Z,97371
2018-01-10T06:37:23.215Z,97367
2018-01-10T06:39:51.406Z,97369
2018-01-10T06:42:19.571Z,97363
2018-01-10T06:44:47.737Z,97358
2018-01-10T06:47:15.981Z,97356
2018-01-10T06:49:44.927Z,97357
2018-01-10T06:52:13.091Z,97343
2018-01-10T06:54:41.254Z,97340
2018-01-10T06:57:09.414Z,97333
2018-01-10T06:59:37.574Z,97329
2018-01-10T07:02:06.511Z,97330
2018-01-10T07:04:34.698Z,97328
2018-01-10T07:07:02.872Z,97330
2018-01-10T07:09:31.040Z,97321
2018-01-10T07:11:59.233Z,97313
2018-01-10T07:14:27.414Z,97313
2018-01-10T07:16:55.573Z,97320
2018-01-10T07:19:23.760Z,97325
2018-01-10T07:21:51.939Z,97335
2018-01-10T07:24:20.139Z,97348
2018-01-10T07:26:49.066Z,97350
2018-01-10T07:29:17.257Z,97353
2018-01-10T07:31:46.643Z,97354
2018-01-10T07:34:15.678Z,97361
2018-01-10T07:36:43.865Z,97363
2018-01-10T07:39:12.822Z,97360
2018-01-10T07:41:40.986Z,97358
2018-01-10T07:44:09.176Z,97360
2018-01-10T07:46:37.382Z,97353
2018-01-10T07:49:06.330Z,97352
2018-01-10T07:51:34.506Z,97358
2018-01-10T07:54:02.678Z,97361
2018-01-10T07:56:30.840Z,97368
2018-01-10T07:58:59.036Z,97357
2018-01-10T08:01:27.237Z,97352
2018-01-10T08:03:55.460Z,97341
2018-01-10T08:06:23.626Z,97335
2018-01-10T08:08:51.811Z,97338
2018-01-10T08:11:19.989Z,97332
2018-01-10T08:13:48.164Z,97336
2018-01-10T08:16:16.368Z,97332
2018-01-10T08:18:44.547Z,97325
2018-01-10T08:21:12.715Z,97322
2018-01-10T08:23:40.919Z,97329
2018-01-10T08:26:09.156Z,97329
2018-01-10T08:28:37.323Z,97329
2018-01-10T08:31:06.190Z,97329
2018-01-10T08:33:34.383Z,97328
2018-01-10T08:36:02.568Z,97329
2018-01-10T08:38:30.747Z,97328
2018-01-10T08:40:58.941Z,97331
2018-01-10T08:43:27.154Z,97340
2018-01-10T08:45:55.346Z,97340
2018-01-10T08:48:23.507Z,97338
2018-01-10T08:50:51.678Z,97335
2018-01-10T08:53:19.839Z,97330
2018-01-10T08:55:48.782Z,97331
2018-01-10T08:58:16.954Z,97329
2018-01-10T09:00:45.128Z,97325
2018-01-10T09:03:13.298Z,97328
2018-01-10T09:05:41.468Z,97312
2018-01-10T09:08:09.633Z,97310
2018-01-10T09:10:37.822Z,97310
2018-01-10T09:13:06.009Z,97306
2018-01-10T09:15:34.175Z,97309
2018-01-10T09:18:02.343Z,97302
2018-01-10T09:20:30.528Z,97298
2018-01-10T09:22:58.692Z,97296
2018-01-10T09:25:26.857Z,97293
2018-01-10T09:27:55.037Z,97294
2018-01-10T09:30:23.193Z,97300
2018-01-10T09:32:51.380Z,97297
2018-01-10T09:35:19.558Z,97286
2018-01-10T09:37:47.717Z,97287
2018-01-10T09:40:15.878Z,97293
2018-01-10T09:42:44.802Z,97292
2018-01-10T09:45:12.976Z,97283
2018-01-10T09:47:41.150Z,97285
2018-01-10T09:50:09.335Z,97283
2018-01-10T09:52:37.501Z,97276
2018-01-10T09:55:05.741Z,97277
2018-01-10T09:57:34.689Z,97287
2018-01-10T10:00:02.888Z,97277
2018-01-10T10:02:31.061Z,97272
2018-01-10T10:04:59.250Z,97274
2018-01-10T10:07:28.209Z,97279
2018-01-10T10:09:56.411Z,97274
2018-01-10T10:12:24.582Z,97263
2018-01-10T10:14:52.779Z,97263
2018-01-10T10:17:21.709Z,97251
2018-01-10T10:19:49.891Z,97246
2018-01-10T10:22:18.842Z,97238
2018-01-10T10:24:47.780Z,97232
2018-01-10T10:27:15.946Z,97230
2018-01-10T10:29:44.519Z,97221
2018-01-10T10:32:12.681Z,97222
2018-01-10T10:34:40.879Z,97213
2018-01-10T10:37:09.055Z,97210
2018-01-10T10:39:37.218Z,97210
2018-01-10T10:42:05.442Z,97211
2018-01-10T10:44:33.669Z,97212
2018-01-10T10:47:01.841Z,97212
2018-01-10T10:49:30.049Z,97206
2018-01-10T10:51:58.250Z,97201
2018-01-10T10:54:27.178Z,97196
2018-01-10T10:56:55.394Z,97188
2018-01-10T10:59:23.602Z,97184
2018-01-10T11:01:52.539Z,97170
2018-01-10T11:04:20.700Z,97169
2018-01-10T11:06:48.893Z,97169
2018-01-10T11:09:17.056Z,97166
2018-01-10T11:11:46.043Z,97163
2018-01-10T11:14:14.220Z,97166
2018-01-10T11:16:42.405Z,97159
2018-01-10T11:19:10.579Z,97158
2018-01-10T11:21:38.746Z,97168
2018-01-10T11:24:06.917Z,97168
2018-01-10T11:26:35.106Z,97164
2018-01-10T11:29:03.286Z,97157
2018-01-10T11:31:31.467Z,97154
2018-01-10T11:34:04.349Z,97153
2018-01-10T11:36:33.905Z,97149
2018-01-10T11:39:02.838Z,97150
2018-01-10T11:41:31.010Z,97145
2018-01-10T11:43:59.184Z,97144
2018-01-10T11:46:27.360Z,97145
2018-01-10T11:48:55.564Z,97141
2018-01-10T11:51:23.731Z,97139
2018-01-10T11:53:51.919Z,97141
2018-01-10T11:56:20.098Z,97137
2018-01-10T11:58:48.266Z,97129
2018-01-10T12:01:16.444Z,97126
2018-01-10T12:03:44.647Z,97120
2018-01-10T12:06:13.575Z,97121
2018-01-10T12:08:41.749Z,97115
2018-01-10T12:11:09.915Z,97107
2018-01-10T12:13:38.089Z,97101
2018-01-10T12:16:06.262Z,97101
2018-01-10T12:18:34.421Z,97101
2018-01-10T12:21:02.583Z,97101
2018-01-10T12:23:31.532Z,97099
2018-01-10T12:25:59.729Z,97096
2018-01-10T12:28:27.911Z,97093
2018-01-10T12:30:56.849Z,97093
2018-01-10T12:33:25.018Z,97093
2018-01-10T12:35:53.231Z,97094
2018-01-10T12:38:21.399Z,97095
2018-01-10T12:40:49.574Z,97093
2018-01-10T12:43:17.731Z,97094
2018-01-10T12:45:45.889Z,97094
2018-01-10T12:48:14.137Z,97096
2018-01-10T12:50:43.072Z,97096
2018-01-10T12:53:11.243Z,97095
2018-01-10T12:55:39.451Z,97093
2018-01-10T12:58:07.632Z,97098
2018-01-10T13:00:35.798Z,97095
2018-01-10T13:03:04.052Z,97094
2018-01-10T13:05:32.293Z,97094
2018-01-10T13:08:00.476Z,97095
2018-01-10T13:10:28.639Z,97090
2018-01-10T13:12:56.808Z,97091
2018-01-10T13:15:25.734Z,97086
2018-01-10T13:17:53.913Z,97094
2018-01-10T13:20:22.182Z,97090
2018-01-10T13:22:50.350Z,97086
2018-01-10T13:25:18.520Z,97077
2018-01-10T13:27:46.703Z,97083
2018-01-10T13:30:14.862Z,97083
2018-01-10T13:32:43.095Z,97084
2018-01-10T13:35:11.300Z,97081
2018-01-10T13:37:39.473Z,97083
2018-01-10T13:40:08.442Z,97076
2018-01-10T13:42:36.611Z,97081
2018-01-10T13:45:04.781Z,97082
2018-01-10T13:47:33.038Z,97083
2018-01-10T13:50:01.225Z,97081
2018-01-10T13:52:29.427Z,97092
2018-01-10T13:54:58.420Z,97088
2018-01-10T13:57:27.349Z,97086
2018-01-10T13:59:55.556Z,97084
2018-01-10T14:02:24.541Z,97081
2018-01-10T14:04:52.748Z,97075
2018-01-10T14:07:20.938Z,97077
2018-01-10T14:09:49.874Z,97076
2018-01-10T14:12:18.042Z,97071
2018-01-10T14:14:46.219Z,97075
2018-01-10T14:17:14.438Z,97080
2018-01-10T14:19:42.706Z,97081
2018-01-10T14:22:10.962Z,97078
2018-01-10T14:24:39.147Z,97083
2018-01-10T14:27:07.324Z,97090
2018-01-10T14:29:35.527Z,97088
2018-01-10T14:32:04.546Z,97088
2018-01-10T14:34:32.850Z,97086
2018-01-10T14:37:01.027Z,97080
2018-01-10T14:39:29.198Z,97081
2018-01-10T14:41:57.379Z,97081
2018-01-10T14:44:25.614Z,97073
2018-01-10T14:46:53.798Z,97085
2018-01-10T14:49:22.586Z,97074
2018-01-10T14:51:50.751Z,97091
2018-01-10T14:54:19.718Z,97089
2018-01-10T14:56:47.893Z,97087
2018-01-10T14:59:16.846Z,97087
2018-01-10T15:01:45.043Z,97087
2018-01-10T15:04:13.296Z,97091
2018-01-10T15:06:41.473Z,97082
2018-01-10T15:09:09.651Z,97083
2018-01-10T15:11:37.823Z,97082
2018-01-10T15:14:05.986Z,97082
2018-01-10T15:16:34.194Z,97089
2018-01-10T15:19:03.564Z,97082
2018-01-10T15:21:31.736Z,97090
2018-01-10T15:23:59.898Z,97100
2018-01-10T15:26:28.085Z,97094
2018-01-10T15:28:56.278Z,97093
2018-01-10T15:31:25.304Z,97098
2018-01-10T15:33:53.467Z,97098
2018-01-10T15:36:21.658Z,97096
2018-01-10T15:38:50.601Z,97099
2018-01-10T15:41:18.765Z,97096
2018-01-10T15:43:46.958Z,97102
2018-01-10T15:46:15.133Z,97104
2018-01-10T15:48:43.325Z,97102
2018-01-10T15:51:11.498Z,97102
2018-01-10T15:53:39.678Z,97104
2018-01-10T15:56:07.905Z,97104
2018-01-10T15:58:36.070Z,97108
2018-01-10T16:01:04.278Z,97110
2018-01-10T16:03:32.486Z,97117
2018-01-10T16:06:01.458Z,97109
2018-01-10T16:08:29.633Z,97107
2018-01-10T16:10:58.402Z,97115
2018-01-10T16:13:26.576Z,97114
2018-01-10T16:15:54.795Z,97113
2018-01-10T16:18:23.129Z,97118
2018-01-10T16:20:51.309Z,97119
2018-01-10T16:23:19.487Z,97125
2018-01-10T16:25:47.754Z,97122
2018-01-10T16:28:15.915Z,97120
2018-01-10T16:30:44.211Z,97129
2018-01-10T16:33:12.447Z,97126
2018-01-10T16:35:41.387Z,97126
2018-01-10T16:38:09.553Z,97132
2018-01-10T16:40:37.802Z,97128
2018-01-10T16:43:05.982Z,97127
2018-01-10T16:45:34.246Z,97127
2018-01-10T16:48:03.251Z,97130
2018-01-10T16:50:31.437Z,97128
2018-01-10T16:52:59.608Z,97124
2018-01-10T16:55:28.060Z,97122
2018-01-10T16:57:57.004Z,97121
2018-01-10T17:00:25.204Z,97126
2018-01-10T17:02:53.499Z,97126
2018-01-10T17:05:22.514Z,97132
2018-01-10T17:07:51.462Z,97127
2018-01-10T17:10:19.651Z,97129
2018-01-10T17:12:47.848Z,97128
2018-01-10T17:15:16.804Z,97132
2018-01-10T17:17:45.756Z,97133
2018-01-10T17:20:13.953Z,97140
2018-01-10T17:22:42.134Z,97142
2018-01-10T17:25:10.303Z,97143
2018-01-10T17:27:38.480Z,97137
2018-01-10T17:30:06.658Z,97143
2018-01-10T17:32:34.858Z,97147
2018-01-10T17:35:03.102Z,97150
2018-01-10T17:37:31.270Z,97151
2018-01-10T17:39:59.433Z,97149
2018-01-10T17:42:27.695Z,97153
2018-01-10T17:44:55.862Z,97153
2018-01-10T17:47:24.839Z,97149
2018-01-10T17:49:53.819Z,97149
2018-01-10T17:52:22.039Z,97158
2018-01-10T17:54:50.227Z,97153
2018-01-10T17:57:18.416Z,97163
2018-01-10T17:59:46.591Z,97159
2018-01-10T18:02:14.791Z,97159
2018-01-10T18:04:42.987Z,97157
2018-01-10T18:07:11.972Z,97158
2018-01-10T18:09:40.149Z,97161
2018-01-10T18:12:08.328Z,97166
2018-01-10T18:14:37.263Z,97167
2018-01-10T18:17:05.435Z,97167
2018-01-10T18:19:33.624Z,97166
2018-01-10T18:22:01.887Z,97160
2018-01-10T18:24:30.075Z,97155
2018-01-10T18:26:58.764Z,97158
2018-01-10T18:29:26.939Z,97159
2018-01-10T18:31:55.111Z,97160
2018-01-10T18:34:23.312Z,97163
2018-01-10T18:36:51.488Z,97163
2018-01-10T18:39:19.691Z,97158
2018-01-10T18:41:48.650Z,97158
2018-01-10T18:44:16.823Z,97158
2018-01-10T18:46:44.988Z,97154
2018-01-10T18:49:13.225Z,97155
2018-01-10T18:51:41.392Z,97151
2018-01-10T18:54:09.571Z,97153
2018-01-10T18:56:37.764Z,97157
2018-01-10T18:59:05.936Z,97155
2018-01-10T19:01:34.121Z,97155
2018-01-10T19:04:02.298Z,97163
2018-01-10T19:06:30.475Z,97159
2018-01-10T19:08:58.651Z,97152
2018-01-10T19:11:26.823Z,97153
2018-01-10T19:13:55.004Z,97159
2018-01-10T19:16:23.196Z,97155
2018-01-10T19:18:51.378Z,97155
2018-01-10T19:21:19.564Z,97156
2018-01-10T19:23:48.513Z,97155
2018-01-10T19:26:16.692Z,97154
2018-01-10T19:28:45.645Z,97153
2018-01-10T19:31:13.824Z,97151
2018-01-10T19:33:42.121Z,97148
2018-01-10T19:36:10.297Z,97151
2018-01-10T19:38:38.474Z,97150
2018-01-10T19:41:06.674Z,97147
2018-01-10T19:43:34.909Z,97151
2018-01-10T19:46:03.093Z,97151
2018-01-10T19:48:31.265Z,97155
2018-01-10T19:50:59.448Z,97156
2018-01-10T19:53:27.619Z,97156
2018-01-10T19:55:55.822Z,97160
2018-01-10T19:58:24.012Z,97153
2018-01-10T20:00:52.197Z,97152
2018-01-10T20:03:20.385Z,97152
2018-01-10T20:05:49.334Z,97138
2018-01-10T20:08:17.511Z,97151
2018-01-10T20:10:45.746Z,97152
2018-01-10T20:13:13.940Z,97151
2018-01-10T20:15:42.109Z,97151
2018-01-10T20:18:10.298Z,97150
2018-01-10T20:20:38.493Z,97150
2018-01-10T20:23:06.675Z,97141
2018-01-10T20:25:34.859Z,97144
2018-01-10T20:28:03.034Z,97144
2018-01-10T20:30:31.210Z,97144
2018-01-10T20:32:59.384Z,97146
2018-01-10T20:35:27.578Z,97147
2018-01-10T20:37:56.573Z,97143
2018-01-10T20:40:26.042Z,97145
2018-01-10T20:42:54.214Z,97139
2018-01-10T20:45:22.407Z,97141
2018-01-10T20:47:50.602Z,97143
2018-01-10T20:50:19.621Z,97146
2018-01-10T20:52:47.790Z,97147
2018-01-10T20:55:15.970Z,97151
2018-01-10T20:57:44.162Z,97148
2018-01-10T21:00:12.337Z,97148
2018-01-10T21:02:40.554Z,97143
2018-01-10T21:05:09.502Z,97143
2018-01-10T21:07:38.417Z,97145
2018-01-10T21:10:06.629Z,97149
2018-01-10T21:12:35.677Z,97149
2018-01-10T21:15:03.891Z,97146
2018-01-10T21:17:32.835Z,97144
2018-01-10T21:20:01.007Z,97146
2018-01-10T21:22:29.183Z,97146
2018-01-10T21:24:57.398Z,97146
2018-01-10T21:27:25.573Z,97147
2018-01-10T21:29:53.761Z,97144
2018-01-10T21:32:22.690Z,97140
2018-01-10T21:34:50.872Z,97144
2018-01-10T21:37:19.067Z,97146
2018-01-10T21:39:47.238Z,97147
2018-01-10T21:42:15.409Z,97143
2018-01-10T21:44:43.577Z,97143
2018-01-10T21:47:11.746Z,97149
2018-01-10T21:49:39.921Z,97146
2018-01-10T21:52:08.095Z,97149
2018-01-10T21:54:36.286Z,97148
2018-01-10T21:57:04.482Z,97144
2018-01-10T21:59:32.711Z,97145
2018-01-10T22:02:00.871Z,97144
2018-01-10T22:04:29.046Z,97142
2018-01-10T22:06:57.219Z,97143
2018-01-10T22:09:25.418Z,97142
2018-01-10T22:11:53.613Z,97138
2018-01-10T22:14:21.782Z,97135
2018-01-10T22:16:49.957Z,97134
2018-01-10T22:19:18.137Z,97132
2018-01-10T22:21:46.301Z,97132
2018-01-10T22:24:14.504Z,97124
2018-01-10T22:26:42.666Z,97126
2018-01-10T22:29:10.854Z,97124
2018-01-10T22:31:39.033Z,97124
2018-01-10T22:34:07.243Z,97123
2018-01-10T22:36:35.425Z,97128
2018-01-10T22:39:03.642Z,97120
2018-01-10T22:41:31.814Z,97122
2018-01-10T22:43:59.994Z,97121
2018-01-10T22:46:28.168Z,97123
2018-01-10T22:48:56.376Z,97121
2018-01-10T22:51:25.324Z,97117
2018-01-10T22:53:53.495Z,97116
2018-01-10T22:56:22.450Z,97118
2018-01-10T22:58:50.612Z,97113
2018-01-10T23:01:18.814Z,97111
2018-01-10T23:03:47.001Z,97112
2018-01-10T23:06:15.174Z,97118
2018-01-10T23:08:43.349Z,97108
2018-01-10T23:11:11.547Z,97107
2018-01-10T23:13:39.770Z,97106
2018-01-10T23:16:07.946Z,97108
2018-01-10T23:18:36.118Z,97108
2018-01-10T23:21:04.294Z,97109
2018-01-10T23:23:32.470Z,97109
2018-01-10T23:26:00.660Z,97104
2018-01-10T23:28:28.819Z,97102
2018-01-10T23:30:56.990Z,97101
2018-01-10T23:33:25.167Z,97103
2018-01-10T23:35:53.345Z,97104
2018-01-10T23:38:21.521Z,97108
2018-01-10T23:40:49.690Z,97108
2018-01-10T23:56:17.896Z,97094
2018-01-10T23:58:46.067Z,97095
